sensor_id;sensor_type;location;lat;lon;timestamp;pressure;altitude;pressure_sealevel;temperature;humidity
36788;BME280;22738;45.560;9.434;2023-05-07T00:01:23;99799.00;;;20.05;100.00
36788;BME280;22738;45.560;9.434;2023-05-07T00:08:04;99810.88;;;20.09;100.00
36788;BME280;22738;45.560;9.434;2023-05-07T00:14:45;99803.63;;;20.11;100.00
36788;BME280;22738;45.560;9.434;2023-05-07T00:21:26;99820.41;;;20.10;100.00
36788;BME280;22738;45.560;9.434;2023-05-07T00:28:07;99828.16;;;20.11;100.00
36788;BME280;22738;45.560;9.434;2023-05-07T00:34:48;99841.13;;;20.13;100.00
36788;BME280;22738;45.560;9.434;2023-05-07T00:41:30;99841.41;;;20.02;100.00
36788;BME280;22738;45.560;9.434;2023-05-07T00:48:13;99843.28;;;19.75;100.00
36788;BME280;22738;45.560;9.434;2023-05-07T00:54:54;99855.41;;;19.68;100.00
36788;BME280;22738;45.560;9.434;2023-05-07T01:01:36;99865.53;;;19.63;100.00
36788;BME280;22738;45.560;9.434;2023-05-07T01:08:18;99868.31;;;19.36;100.00
36788;BME280;22738;45.560;9.434;2023-05-07T01:14:59;99867.84;;;19.23;100.00
36788;BME280;22738;45.560;9.434;2023-05-07T01:21:45;99873.81;;;18.90;100.00
36788;BME280;22738;45.560;9.434;2023-05-07T01:28:27;99876.25;;;18.74;100.00
36788;BME280;22738;45.560;9.434;2023-05-07T01:35:15;99882.41;;;18.65;100.00
36788;BME280;22738;45.560;9.434;2023-05-07T01:41:58;99886.97;;;18.63;100.00
36788;BME280;22738;45.560;9.434;2023-05-07T01:48:41;99890.53;;;18.34;100.00
36788;BME280;22738;45.560;9.434;2023-05-07T01:55:22;99882.66;;;18.07;100.00
36788;BME280;22738;45.560;9.434;2023-05-07T02:02:05;99881.56;;;18.00;100.00
36788;BME280;22738;45.560;9.434;2023-05-07T02:08:48;99880.22;;;17.96;100.00
36788;BME280;22738;45.560;9.434;2023-05-07T02:15:30;99886.59;;;17.84;100.00
36788;BME280;22738;45.560;9.434;2023-05-07T02:22:14;99883.97;;;17.84;100.00
36788;BME280;22738;45.560;9.434;2023-05-07T02:28:56;99885.50;;;17.77;100.00
36788;BME280;22738;45.560;9.434;2023-05-07T02:35:37;99908.94;;;17.88;100.00
36788;BME280;22738;45.560;9.434;2023-05-07T02:42:18;99931.59;;;17.79;100.00
36788;BME280;22738;45.560;9.434;2023-05-07T02:49:00;99912.41;;;17.79;100.00
36788;BME280;22738;45.560;9.434;2023-05-07T02:55:41;99882.47;;;17.72;100.00
36788;BME280;22738;45.560;9.434;2023-05-07T03:02:22;99876.19;;;17.55;100.00
36788;BME280;22738;45.560;9.434;2023-05-07T03:09:04;99867.88;;;17.41;100.00
36788;BME280;22738;45.560;9.434;2023-05-07T03:15:47;99868.88;;;17.40;100.00
36788;BME280;22738;45.560;9.434;2023-05-07T03:22:28;99887.47;;;17.46;100.00
36788;BME280;22738;45.560;9.434;2023-05-07T03:29:10;99912.28;;;17.42;100.00
36788;BME280;22738;45.560;9.434;2023-05-07T03:35:51;99900.31;;;17.30;100.00
36788;BME280;22738;45.560;9.434;2023-05-07T03:42:37;99896.31;;;17.36;100.00
36788;BME280;22738;45.560;9.434;2023-05-07T03:49:18;99906.38;;;17.40;100.00
36788;BME280;22738;45.560;9.434;2023-05-07T03:55:59;99922.50;;;17.36;100.00
36788;BME280;22738;45.560;9.434;2023-05-07T04:02:43;99930.81;;;17.60;100.00
36788;BME280;22738;45.560;9.434;2023-05-07T04:09:25;99917.53;;;17.71;100.00
36788;BME280;22738;45.560;9.434;2023-05-07T04:16:06;99882.53;;;17.53;100.00
36788;BME280;22738;45.560;9.434;2023-05-07T04:22:50;99898.91;;;17.45;100.00
36788;BME280;22738;45.560;9.434;2023-05-07T04:29:31;99913.00;;;17.44;100.00
36788;BME280;22738;45.560;9.434;2023-05-07T04:36:13;99875.63;;;17.23;100.00
36788;BME280;22738;45.560;9.434;2023-05-07T04:43:04;99876.19;;;17.07;100.00
36788;BME280;22738;45.560;9.434;2023-05-07T04:49:49;99855.78;;;17.11;100.00
36788;BME280;22738;45.560;9.434;2023-05-07T04:56:30;99858.41;;;17.11;100.00
36788;BME280;22738;45.560;9.434;2023-05-07T05:03:12;99847.78;;;16.84;100.00
36788;BME280;22738;45.560;9.434;2023-05-07T05:09:54;99833.75;;;16.94;100.00
36788;BME280;22738;45.560;9.434;2023-05-07T05:16:37;99818.56;;;16.88;100.00
36788;BME280;22738;45.560;9.434;2023-05-07T05:23:19;99816.66;;;16.71;100.00
36788;BME280;22738;45.560;9.434;2023-05-07T05:30:01;99832.22;;;17.01;100.00
36788;BME280;22738;45.560;9.434;2023-05-07T05:36:46;99880.19;;;17.31;100.00
36788;BME280;22738;45.560;9.434;2023-05-07T05:43:29;99876.00;;;17.47;100.00
36788;BME280;22738;45.560;9.434;2023-05-07T05:50:10;99876.44;;;17.71;100.00
36788;BME280;22738;45.560;9.434;2023-05-07T05:56:52;99872.81;;;17.82;100.00
36788;BME280;22738;45.560;9.434;2023-05-07T06:03:33;99870.41;;;17.98;100.00
36788;BME280;22738;45.560;9.434;2023-05-07T06:10:19;99869.16;;;18.29;100.00
36788;BME280;22738;45.560;9.434;2023-05-07T06:17:01;99871.34;;;18.61;100.00
36788;BME280;22738;45.560;9.434;2023-05-07T06:23:43;99864.69;;;19.02;100.00
36788;BME280;22738;45.560;9.434;2023-05-07T06:30:25;99863.84;;;20.14;100.00
36788;BME280;22738;45.560;9.434;2023-05-07T06:37:08;99843.66;;;20.72;100.00
36788;BME280;22738;45.560;9.434;2023-05-07T06:44:06;99872.59;;;20.56;100.00
36788;BME280;22738;45.560;9.434;2023-05-07T06:50:53;99881.53;;;20.71;100.00
36788;BME280;22738;45.560;9.434;2023-05-07T06:57:37;99899.28;;;20.53;100.00
36788;BME280;22738;45.560;9.434;2023-05-07T07:04:18;99886.88;;;20.37;100.00
36788;BME280;22738;45.560;9.434;2023-05-07T07:11:08;99884.25;;;20.53;100.00
36788;BME280;22738;45.560;9.434;2023-05-07T07:17:49;99879.44;;;20.91;100.00
36788;BME280;22738;45.560;9.434;2023-05-07T07:24:30;99887.53;;;21.54;100.00
36788;BME280;22738;45.560;9.434;2023-05-07T07:31:15;99886.25;;;23.58;100.00
36788;BME280;22738;45.560;9.434;2023-05-07T07:37:57;99885.47;;;23.72;100.00
36788;BME280;22738;45.560;9.434;2023-05-07T07:44:38;99895.75;;;23.30;100.00
36788;BME280;22738;45.560;9.434;2023-05-07T07:51:26;99898.41;;;23.67;100.00
36788;BME280;22738;45.560;9.434;2023-05-07T07:58:07;99913.50;;;24.84;100.00
36788;BME280;22738;45.560;9.434;2023-05-07T08:04:49;99906.75;;;24.81;100.00
36788;BME280;22738;45.560;9.434;2023-05-07T08:11:30;99917.41;;;25.02;100.00
36788;BME280;22738;45.560;9.434;2023-05-07T08:18:11;99913.72;;;25.24;100.00
36788;BME280;22738;45.560;9.434;2023-05-07T08:24:53;99921.63;;;25.18;100.00
36788;BME280;22738;45.560;9.434;2023-05-07T08:31:35;99915.00;;;25.07;100.00
36788;BME280;22738;45.560;9.434;2023-05-07T08:38:16;99903.78;;;25.75;100.00
36788;BME280;22738;45.560;9.434;2023-05-07T08:44:59;99908.88;;;25.77;100.00
36788;BME280;22738;45.560;9.434;2023-05-07T08:51:42;99917.25;;;26.76;100.00
36788;BME280;22738;45.560;9.434;2023-05-07T08:58:23;99912.66;;;27.31;100.00
36788;BME280;22738;45.560;9.434;2023-05-07T09:05:05;99924.94;;;27.32;100.00
36788;BME280;22738;45.560;9.434;2023-05-07T09:11:47;99925.72;;;27.00;100.00
36788;BME280;22738;45.560;9.434;2023-05-07T09:18:30;99933.31;;;27.16;100.00
36788;BME280;22738;45.560;9.434;2023-05-07T09:25:11;99918.66;;;27.46;100.00
36788;BME280;22738;45.560;9.434;2023-05-07T09:31:54;99906.31;;;26.65;93.94
36788;BME280;22738;45.560;9.434;2023-05-07T09:38:36;99908.13;;;26.99;98.05
36788;BME280;22738;45.560;9.434;2023-05-07T09:45:27;99895.84;;;27.24;81.09
36788;BME280;22738;45.560;9.434;2023-05-07T09:52:09;99896.13;;;27.48;87.58
36788;BME280;22738;45.560;9.434;2023-05-07T09:59:01;99898.78;;;27.55;75.23
36788;BME280;22738;45.560;9.434;2023-05-07T10:05:47;99886.28;;;27.62;78.90
36788;BME280;22738;45.560;9.434;2023-05-07T10:12:29;99881.53;;;27.77;77.61
36788;BME280;22738;45.560;9.434;2023-05-07T10:19:11;99875.44;;;27.50;82.77
36788;BME280;22738;45.560;9.434;2023-05-07T10:25:55;99887.69;;;27.84;80.31
36788;BME280;22738;45.560;9.434;2023-05-07T10:32:49;99883.59;;;27.49;79.21
36788;BME280;22738;45.560;9.434;2023-05-07T10:39:43;99874.59;;;27.43;75.32
36788;BME280;22738;45.560;9.434;2023-05-07T10:46:25;99881.75;;;27.56;87.64
36788;BME280;22738;45.560;9.434;2023-05-07T11:07:29;99859.97;;;27.85;78.07
36788;BME280;22738;45.560;9.434;2023-05-07T11:14:45;99856.16;;;27.42;75.22
36788;BME280;22738;45.560;9.434;2023-05-07T11:21:41;99844.19;;;27.90;85.89
36788;BME280;22738;45.560;9.434;2023-05-07T11:28:55;99844.34;;;28.15;85.26
36788;BME280;22738;45.560;9.434;2023-05-07T11:35:39;99838.28;;;28.46;87.56
36788;BME280;22738;45.560;9.434;2023-05-07T11:42:29;99829.72;;;27.67;94.69
36788;BME280;22738;45.560;9.434;2023-05-07T11:49:12;99826.84;;;27.29;99.02
36788;BME280;22738;45.560;9.434;2023-05-07T11:55:56;99817.94;;;26.69;97.35
36788;BME280;22738;45.560;9.434;2023-05-07T12:02:37;99812.72;;;27.09;100.00
36788;BME280;22738;45.560;9.434;2023-05-07T12:09:19;99816.81;;;27.57;95.98
36788;BME280;22738;45.560;9.434;2023-05-07T12:16:00;99818.84;;;27.68;98.76
36788;BME280;22738;45.560;9.434;2023-05-07T12:22:46;99814.13;;;27.70;100.00
36788;BME280;22738;45.560;9.434;2023-05-07T12:29:28;99806.97;;;27.64;97.44
36788;BME280;22738;45.560;9.434;2023-05-07T12:36:12;99792.25;;;27.22;82.25
36788;BME280;22738;45.560;9.434;2023-05-07T12:42:53;99790.94;;;26.59;96.87
36788;BME280;22738;45.560;9.434;2023-05-07T12:49:37;99788.91;;;26.61;100.00
36788;BME280;22738;45.560;9.434;2023-05-07T12:56:19;99780.31;;;26.59;100.00
36788;BME280;22738;45.560;9.434;2023-05-07T13:03:01;99781.53;;;26.63;100.00
36788;BME280;22738;45.560;9.434;2023-05-07T13:09:42;99784.03;;;27.11;96.37
36788;BME280;22738;45.560;9.434;2023-05-07T13:16:23;99765.41;;;27.43;86.99
36788;BME280;22738;45.560;9.434;2023-05-07T13:23:04;99757.22;;;27.45;85.20
36788;BME280;22738;45.560;9.434;2023-05-07T13:29:45;99749.22;;;27.32;90.06
36788;BME280;22738;45.560;9.434;2023-05-07T13:36:27;99743.91;;;27.38;90.06
36788;BME280;22738;45.560;9.434;2023-05-07T13:43:10;99735.63;;;27.73;78.43
36788;BME280;22738;45.560;9.434;2023-05-07T13:49:51;99735.94;;;27.96;81.82
36788;BME280;22738;45.560;9.434;2023-05-07T13:56:32;99735.19;;;27.82;83.30
36788;BME280;22738;45.560;9.434;2023-05-07T14:03:13;99713.13;;;27.62;83.09
36788;BME280;22738;45.560;9.434;2023-05-07T14:09:55;99713.53;;;27.59;83.09
36788;BME280;22738;45.560;9.434;2023-05-07T14:16:36;99712.28;;;27.68;88.84
36788;BME280;22738;45.560;9.434;2023-05-07T14:23:17;99695.09;;;27.64;63.06
36788;BME280;22738;45.560;9.434;2023-05-07T14:30:00;99697.50;;;27.72;61.41
36788;BME280;22738;45.560;9.434;2023-05-07T14:36:41;99691.44;;;27.52;67.87
36788;BME280;22738;45.560;9.434;2023-05-07T14:43:22;99689.84;;;27.38;69.98
36788;BME280;22738;45.560;9.434;2023-05-07T14:50:04;99682.38;;;27.66;72.84
36788;BME280;22738;45.560;9.434;2023-05-07T14:56:46;99686.97;;;27.46;69.36
36788;BME280;22738;45.560;9.434;2023-05-07T15:03:27;99684.97;;;27.09;75.76
36788;BME280;22738;45.560;9.434;2023-05-07T15:10:09;99685.81;;;26.90;67.71
36788;BME280;22738;45.560;9.434;2023-05-07T15:16:50;99684.59;;;26.85;61.81
36788;BME280;22738;45.560;9.434;2023-05-07T15:23:32;99685.00;;;26.82;76.41
36788;BME280;22738;45.560;9.434;2023-05-07T15:30:13;99701.78;;;27.03;70.58
36788;BME280;22738;45.560;9.434;2023-05-07T15:36:55;99700.91;;;27.15;67.74
36788;BME280;22738;45.560;9.434;2023-05-07T15:43:48;99694.38;;;27.18;76.96
36788;BME280;22738;45.560;9.434;2023-05-07T15:50:29;99686.16;;;27.39;71.12
36788;BME280;22738;45.560;9.434;2023-05-07T15:57:11;99680.00;;;27.32;69.98
36788;BME280;22738;45.560;9.434;2023-05-07T16:03:52;99678.84;;;27.02;74.63
36788;BME280;22738;45.560;9.434;2023-05-07T16:10:33;99687.84;;;26.81;85.77
36788;BME280;22738;45.560;9.434;2023-05-07T16:17:14;99674.72;;;26.53;81.88
36788;BME280;22738;45.560;9.434;2023-05-07T16:23:55;99677.78;;;26.31;87.78
36788;BME280;22738;45.560;9.434;2023-05-07T16:30:36;99671.84;;;26.22;91.41
36788;BME280;22738;45.560;9.434;2023-05-07T16:37:17;99671.84;;;26.22;88.43
36788;BME280;22738;45.560;9.434;2023-05-07T16:43:58;99676.31;;;26.15;93.56
36788;BME280;22738;45.560;9.434;2023-05-07T16:50:39;99680.41;;;26.11;94.07
36788;BME280;22738;45.560;9.434;2023-05-07T16:57:21;99683.63;;;26.00;96.34
36788;BME280;22738;45.560;9.434;2023-05-07T17:04:02;99681.75;;;25.87;95.87
36788;BME280;22738;45.560;9.434;2023-05-07T17:10:43;99679.47;;;25.78;100.00
36788;BME280;22738;45.560;9.434;2023-05-07T17:17:26;99680.22;;;25.59;99.30
36788;BME280;22738;45.560;9.434;2023-05-07T17:24:07;99694.38;;;25.38;100.00
36788;BME280;22738;45.560;9.434;2023-05-07T17:30:49;99702.44;;;25.17;100.00
36788;BME280;22738;45.560;9.434;2023-05-07T17:37:31;99696.59;;;25.00;100.00
36788;BME280;22738;45.560;9.434;2023-05-07T17:44:12;99710.38;;;24.89;100.00
36788;BME280;22738;45.560;9.434;2023-05-07T17:50:59;99715.19;;;24.79;100.00
36788;BME280;22738;45.560;9.434;2023-05-07T17:57:40;99725.66;;;24.66;100.00
36788;BME280;22738;45.560;9.434;2023-05-07T18:04:21;99720.97;;;24.47;100.00
36788;BME280;22738;45.560;9.434;2023-05-07T18:11:04;99716.31;;;24.28;100.00
36788;BME280;22738;45.560;9.434;2023-05-07T18:17:45;99713.72;;;24.13;100.00
36788;BME280;22738;45.560;9.434;2023-05-07T18:24:26;99723.69;;;23.96;100.00
36788;BME280;22738;45.560;9.434;2023-05-07T18:31:07;99721.22;;;23.95;100.00
36788;BME280;22738;45.560;9.434;2023-05-07T18:37:48;99731.81;;;23.95;100.00
36788;BME280;22738;45.560;9.434;2023-05-07T18:44:30;99728.34;;;24.09;100.00
36788;BME280;22738;45.560;9.434;2023-05-07T18:51:11;99727.28;;;24.25;100.00
36788;BME280;22738;45.560;9.434;2023-05-07T18:57:53;99731.53;;;23.90;100.00
36788;BME280;22738;45.560;9.434;2023-05-07T19:04:34;99735.84;;;22.81;100.00
36788;BME280;22738;45.560;9.434;2023-05-07T19:11:16;99746.66;;;22.48;100.00
36788;BME280;22738;45.560;9.434;2023-05-07T19:17:57;99745.59;;;22.04;100.00
36788;BME280;22738;45.560;9.434;2023-05-07T19:24:38;99767.66;;;21.64;100.00
36788;BME280;22738;45.560;9.434;2023-05-07T19:31:26;99777.41;;;21.64;100.00
36788;BME280;22738;45.560;9.434;2023-05-07T19:38:07;99781.19;;;22.16;100.00
36788;BME280;22738;45.560;9.434;2023-05-07T19:44:48;99787.25;;;21.78;100.00
36788;BME280;22738;45.560;9.434;2023-05-07T19:51:30;99800.63;;;21.60;100.00
36788;BME280;22738;45.560;9.434;2023-05-07T19:58:12;99807.47;;;21.30;100.00
36788;BME280;22738;45.560;9.434;2023-05-07T20:04:56;99825.44;;;21.19;100.00
36788;BME280;22738;45.560;9.434;2023-05-07T20:11:38;99828.47;;;20.50;100.00
36788;BME280;22738;45.560;9.434;2023-05-07T20:18:19;99833.25;;;20.54;100.00
36788;BME280;22738;45.560;9.434;2023-05-07T20:25:03;99818.16;;;20.81;100.00
36788;BME280;22738;45.560;9.434;2023-05-07T20:31:45;99817.66;;;20.77;100.00
36788;BME280;22738;45.560;9.434;2023-05-07T20:38:26;99826.13;;;20.39;100.00
36788;BME280;22738;45.560;9.434;2023-05-07T20:45:08;99820.44;;;20.18;100.00
36788;BME280;22738;45.560;9.434;2023-05-07T20:51:50;99832.28;;;20.14;100.00
36788;BME280;22738;45.560;9.434;2023-05-07T20:58:31;99845.91;;;20.09;100.00
36788;BME280;22738;45.560;9.434;2023-05-07T21:05:12;99832.19;;;19.98;100.00
36788;BME280;22738;45.560;9.434;2023-05-07T21:11:53;99823.75;;;19.86;100.00
36788;BME280;22738;45.560;9.434;2023-05-07T21:18:35;99829.13;;;19.76;100.00
36788;BME280;22738;45.560;9.434;2023-05-07T21:25:16;99818.22;;;19.63;100.00
36788;BME280;22738;45.560;9.434;2023-05-07T21:31:58;99825.13;;;19.64;100.00
36788;BME280;22738;45.560;9.434;2023-05-07T21:38:39;99831.00;;;19.58;100.00
36788;BME280;22738;45.560;9.434;2023-05-07T21:45:21;99841.09;;;19.45;100.00
36788;BME280;22738;45.560;9.434;2023-05-07T21:52:02;99848.94;;;19.37;100.00
36788;BME280;22738;45.560;9.434;2023-05-07T21:58:44;99856.31;;;19.59;100.00
36788;BME280;22738;45.560;9.434;2023-05-07T22:05:25;99862.34;;;19.34;100.00
36788;BME280;22738;45.560;9.434;2023-05-07T22:12:06;99872.03;;;19.51;100.00
36788;BME280;22738;45.560;9.434;2023-05-07T22:18:47;99897.34;;;19.52;100.00
36788;BME280;22738;45.560;9.434;2023-05-07T22:25:31;99895.31;;;19.11;100.00
36788;BME280;22738;45.560;9.434;2023-05-07T22:32:15;99891.06;;;19.10;100.00
36788;BME280;22738;45.560;9.434;2023-05-07T22:38:56;99883.75;;;19.04;100.00
36788;BME280;22738;45.560;9.434;2023-05-07T22:45:37;99888.34;;;19.02;100.00
36788;BME280;22738;45.560;9.434;2023-05-07T22:52:18;99891.88;;;19.10;100.00
36788;BME280;22738;45.560;9.434;2023-05-07T22:58:59;99885.66;;;19.11;100.00
36788;BME280;22738;45.560;9.434;2023-05-07T23:05:41;99888.66;;;18.99;100.00
36788;BME280;22738;45.560;9.434;2023-05-07T23:12:22;99890.06;;;18.76;100.00
36788;BME280;22738;45.560;9.434;2023-05-07T23:19:03;99896.38;;;18.83;100.00
36788;BME280;22738;45.560;9.434;2023-05-07T23:25:45;99908.28;;;18.77;100.00
36788;BME280;22738;45.560;9.434;2023-05-07T23:32:26;99903.16;;;19.03;100.00
36788;BME280;22738;45.560;9.434;2023-05-07T23:39:07;99913.56;;;18.95;100.00
36788;BME280;22738;45.560;9.434;2023-05-07T23:45:48;99915.84;;;18.90;100.00
36788;BME280;22738;45.560;9.434;2023-05-07T23:52:29;99927.00;;;18.92;100.00
36788;BME280;22738;45.560;9.434;2023-05-07T23:59:10;99936.56;;;18.66;100.00
